Time;durP1;ratioP1;P1;durP2;ratioP2;P2;SDS_P1;SDS_P2;PMS_P1;PMS_P2;Temp;Humidity;BMP_temperature;BMP_pressure;BME280_temperature;BME280_humidity;BME280_pressure;Samples;Min_cycle;Max_cycle;Signal;HPM_P1;HPM_P2
2022/10/26 00:01:01;;;;;;;;;;;10.00;99.90;;;;;;6134366;23;19912;-79
2022/10/26 00:03:26;;;;;;;;;;;10.00;99.90;;;;;;6134298;23;19944;-80
2022/10/26 00:05:54;;;;;;;;;;;10.10;99.90;;;;;;6115735;23;20275;-80
2022/10/26 00:08:23;;;;;;;;;;;10.10;99.90;;;;;;6106071;23;20071;-81
2022/10/26 00:10:51;;;;;;;;;;;10.10;99.90;;;;;;6107360;23;20332;-79
2022/10/26 00:13:17;;;;;;;;;;;10.10;99.90;;;;;;6106832;23;19960;-80
2022/10/26 00:15:42;;;;;;;;;;;10.00;99.90;;;;;;6106640;23;19920;-79
2022/10/26 00:18:09;;;;;;;;;;;10.10;99.90;;;;;;6106055;23;19966;-78
2022/10/26 00:20:37;;;;;;;;;;;10.10;99.90;;;;;;6106174;23;19971;-80
2022/10/26 00:23:03;;;;;;;;;;;9.90;99.90;;;;;;6131101;23;20311;-80
2022/10/26 00:25:31;;;;;;;;;;;10.00;99.90;;;;;;6105835;23;19948;-80
2022/10/26 00:27:57;;;;;;;;;;;10.00;99.90;;;;;;6105600;23;19912;-79
2022/10/26 00:30:22;;;;;;;;;;;10.00;99.90;;;;;;6105992;23;19988;-81
2022/10/26 00:32:53;;;;;;;;;;;10.10;99.90;;;;;;6106709;23;19963;-80
2022/10/26 00:35:19;;;;;;;;;;;10.00;99.90;;;;;;6105594;23;19966;-80
2022/10/26 00:37:44;;;;;;;;;;;10.00;99.90;;;;;;6105865;23;19987;-79
2022/10/26 00:40:10;;;;;;;;;;;9.90;99.90;;;;;;6106469;23;19916;-78
2022/10/26 00:42:36;;;;;;;;;;;10.00;99.90;;;;;;6130853;23;20272;-79
2022/10/26 00:45:22;;;;;;;;;;;10.00;99.90;;;;;;6106917;23;19924;-79
2022/10/26 00:47:57;;;;;;;;;;;9.90;99.90;;;;;;6106453;23;20307;-79
2022/10/26 00:50:28;;;;;;;;;;;9.90;99.90;;;;;;6106105;23;20324;-78
2022/10/26 00:52:56;;;;;;;;;;;9.90;99.90;;;;;;6106638;23;19913;-79
2022/10/26 00:55:25;;;;;;;;;;;9.80;99.90;;;;;;6106268;23;19912;-79
2022/10/26 00:57:51;;;;;;;;;;;9.90;99.90;;;;;;6106086;23;20136;-79
2022/10/26 01:00:19;;;;;;;;;;;10.00;99.90;;;;;;6106053;23;20002;-80
2022/10/26 01:02:46;;;;;;;;;;;9.90;99.90;;;;;;6106344;23;19917;-79
2022/10/26 01:05:12;;;;;;;;;;;9.90;99.90;;;;;;6130423;23;19913;-81
2022/10/26 01:07:38;;;;;;;;;;;9.80;99.90;;;;;;6105975;23;19913;-79
2022/10/26 01:10:05;;;;;;;;;;;9.80;99.90;;;;;;6082225;23;19916;-81
2022/10/26 01:12:31;;;;;;;;;;;9.80;99.90;;;;;;6106266;23;19916;-80
2022/10/26 01:14:56;;;;;;;;;;;9.70;99.90;;;;;;6107170;23;19920;-78
2022/10/26 01:17:22;;;;;;;;;;;9.70;99.90;;;;;;6106288;23;20205;-80
2022/10/26 01:20:06;;;;;;;;;;;9.60;99.90;;;;;;6106098;23;19912;-79
2022/10/26 01:22:47;;;;;;;;;;;9.70;99.90;;;;;;6105956;23;20379;-80
2022/10/26 01:25:28;;;;;;;;;;;9.70;99.90;;;;;;6106023;23;19917;-80
2022/10/26 01:27:54;;;;;;;;;;;9.60;99.90;;;;;;6106208;23;19920;-80
2022/10/26 01:30:37;;;;;;;;;;;9.60;99.90;;;;;;6106187;23;19919;-79
2022/10/26 01:33:23;;;;;;;;;;;9.60;99.90;;;;;;6106578;23;19919;-80
2022/10/26 01:36:04;;;;;;;;;;;9.60;99.90;;;;;;6106022;23;19944;-78
2022/10/26 01:38:30;;;;;;;;;;;9.50;99.90;;;;;;6106241;23;20267;-79
2022/10/26 01:41:10;;;;;;;;;;;9.90;99.90;;;;;;6106078;23;19919;-80
2022/10/26 01:43:39;;;;;;;;;;;9.60;99.90;;;;;;6107841;23;20280;-79
2022/10/26 01:46:06;;;;;;;;;;;9.50;99.90;;;;;;6107458;23;19923;-79
2022/10/26 01:48:32;;;;;;;;;;;9.40;99.90;;;;;;6107632;23;19919;-81
2022/10/26 01:51:01;;;;;;;;;;;9.10;99.90;;;;;;6108559;23;19986;-78
2022/10/26 01:53:30;;;;;;;;;;;9.30;99.90;;;;;;6107382;23;20386;-78
2022/10/26 01:55:56;;;;;;;;;;;9.40;99.90;;;;;;6107521;23;19984;-79
2022/10/26 01:58:46;;;;;;;;;;;9.30;99.90;;;;;;6107623;23;19948;-79
2022/10/26 02:01:15;;;;;;;;;;;9.40;99.90;;;;;;6107793;23;19935;-80
2022/10/26 02:03:59;;;;;;;;;;;9.50;99.90;;;;;;6132042;23;20465;-81
2022/10/26 02:06:29;;;;;;;;;;;9.50;99.90;;;;;;6132054;23;19939;-79
2022/10/26 02:09:20;;;;;;;;;;;9.50;99.90;;;;;;6107239;23;20213;-79
2022/10/26 02:11:50;;;;;;;;;;;9.50;99.90;;;;;;6108481;23;19952;-80
2022/10/26 02:14:23;;;;;;;;;;;9.50;99.90;;;;;;6106881;23;19912;-80
2022/10/26 02:16:57;;;;;;;;;;;9.40;99.90;;;;;;6107681;23;19955;-79
2022/10/26 02:19:28;;;;;;;;;;;9.30;99.90;;;;;;6108010;23;20223;-80
2022/10/26 02:22:00;;;;;;;;;;;9.40;99.90;;;;;;6108418;23;20258;-79
2022/10/26 02:24:30;;;;;;;;;;;9.40;99.90;;;;;;6131452;23;19991;-79
2022/10/26 02:26:57;;;;;;;;;;;9.40;99.90;;;;;;6107496;23;19913;-79
2022/10/26 02:29:24;;;;;;;;;;;9.60;99.90;;;;;;6107478;23;20245;-79
2022/10/26 02:31:50;;;;;;;;;;;9.40;99.90;;;;;;6107577;23;19913;-80
2022/10/26 02:34:19;;;;;;;;;;;9.40;99.90;;;;;;6106931;23;19935;-79
2022/10/26 02:36:46;;;;;;;;;;;9.40;99.90;;;;;;6107218;23;19988;-80
2022/10/26 02:39:13;;;;;;;;;;;9.40;99.90;;;;;;6107331;23;19916;-79
2022/10/26 02:41:40;;;;;;;;;;;9.30;99.90;;;;;;6107073;23;19912;-80
2022/10/26 02:44:18;;;;;;;;;;;9.30;99.90;;;;;;6107345;23;19968;-78
2022/10/26 02:46:44;;;;;;;;;;;9.30;99.90;;;;;;6107244;23;19940;-79
2022/10/26 02:49:10;;;;;;;;;;;9.30;99.90;;;;;;6107300;23;19917;-79
2022/10/26 02:51:35;;;;;;;;;;;9.30;99.90;;;;;;6132279;23;19947;-79
2022/10/26 02:54:14;;;;;;;;;;;9.40;99.90;;;;;;6108319;23;19912;-77
2022/10/26 02:56:52;;;;;;;;;;;9.40;99.90;;;;;;6130176;23;19913;-79
2022/10/26 02:59:21;;;;;;;;;;;9.50;99.90;;;;;;6134670;23;19904;-78
2022/10/26 03:01:49;;;;;;;;;;;9.30;99.90;;;;;;6134923;23;19961;-80
2022/10/26 03:04:15;;;;;;;;;;;9.50;99.90;;;;;;6131307;23;19944;-78
2022/10/26 03:06:41;;;;;;;;;;;9.50;99.90;;;;;;6106935;23;19917;-77
2022/10/26 03:09:06;;;;;;;;;;;9.60;99.90;;;;;;6107010;23;20307;-80
2022/10/26 03:11:32;;;;;;;;;;;9.60;99.90;;;;;;6107316;23;19912;-80
2022/10/26 03:13:58;;;;;;;;;;;9.60;99.90;;;;;;6106912;23;19912;-79
2022/10/26 03:16:27;;;;;;;;;;;9.70;99.90;;;;;;6107032;23;19912;-79
2022/10/26 03:18:53;;;;;;;;;;;9.70;99.90;;;;;;6106601;23;19912;-80
2022/10/26 03:21:21;;;;;;;;;;;9.90;99.90;;;;;;6107308;23;19999;-78
2022/10/26 03:23:49;;;;;;;;;;;9.70;99.90;;;;;;6106464;23;19951;-78
2022/10/26 03:26:17;;;;;;;;;;;9.70;99.90;;;;;;6106549;23;19919;-78
2022/10/26 03:28:42;;;;;;;;;;;9.60;99.90;;;;;;6106694;23;19913;-78
2022/10/26 03:31:08;;;;;;;;;;;9.70;99.90;;;;;;6106372;23;20035;-79
2022/10/26 03:33:36;;;;;;;;;;;9.70;99.90;;;;;;6107363;23;20228;-80
2022/10/26 03:36:03;;;;;;;;;;;9.70;99.90;;;;;;6105879;23;19913;-80
2022/10/26 03:38:28;;;;;;;;;;;9.70;99.90;;;;;;6106840;23;20327;-78
2022/10/26 03:41:03;;;;;;;;;;;9.80;99.90;;;;;;6108759;23;19923;-80
2022/10/26 03:43:28;;;;;;;;;;;9.70;99.90;;;;;;6106775;23;19916;-79
2022/10/26 03:45:54;;;;;;;;;;;9.90;99.90;;;;;;6106771;23;19912;-79
2022/10/26 03:48:20;;;;;;;;;;;9.80;99.90;;;;;;6106833;23;19913;-78
2022/10/26 03:50:50;;;;;;;;;;;9.90;99.90;;;;;;6107285;23;19919;-78
2022/10/26 03:53:19;;;;;;;;;;;10.00;99.90;;;;;;6107183;23;19920;-79
2022/10/26 03:55:44;;;;;;;;;;;10.30;99.90;;;;;;6106683;23;19912;-79
2022/10/26 03:58:10;;;;;;;;;;;9.90;99.90;;;;;;6106493;23;19987;-79
2022/10/26 04:00:36;;;;;;;;;;;10.00;99.90;;;;;;6106009;23;20235;-79
2022/10/26 04:03:04;;;;;;;;;;;10.00;99.90;;;;;;6106738;23;19913;-79
2022/10/26 04:05:30;;;;;;;;;;;10.00;99.90;;;;;;6105838;23;19968;-78
2022/10/26 04:07:57;;;;;;;;;;;9.90;99.90;;;;;;6106023;23;19920;-79
2022/10/26 04:10:26;;;;;;;;;;;10.00;99.90;;;;;;6106516;23;19916;-79
2022/10/26 04:12:52;;;;;;;;;;;9.90;99.90;;;;;;6130873;23;19913;-81
2022/10/26 04:15:18;;;;;;;;;;;10.10;99.90;;;;;;6106535;23;19912;-78
2022/10/26 04:17:44;;;;;;;;;;;10.10;99.90;;;;;;6106275;23;20073;-81
2022/10/26 04:20:13;;;;;;;;;;;10.10;99.90;;;;;;6106491;23;20008;-78
2022/10/26 04:22:38;;;;;;;;;;;10.10;99.90;;;;;;6107167;23;19920;-81
2022/10/26 04:25:05;;;;;;;;;;;10.10;99.90;;;;;;6105508;23;19984;-80
2022/10/26 07:30:05;;;;;;;;;;;11.10;99.90;;;;;;6181674;23;19916;-73
2022/10/26 08:03:03;;;;;;;;;;;11.60;99.90;;;;;;5823778;24;19977;-72
2022/10/26 08:14:16;;;;;;;;;;;12.10;99.90;;;;;;6177008;23;19908;-74
2022/10/26 09:52:26;;;;;;;;;;;15.20;99.90;;;;;;5770603;24;19916;-74
2022/10/26 09:55:21;;;;;;;;;;;;;;;;;;;;;
2022/10/26 10:14:56;;;;;;;;;;;15.50;99.90;;;;;;5830795;24;19994;-74
2022/10/26 10:17:22;;;;;;;;;;;15.60;99.90;;;;;;5975379;23;19914;-73
2022/10/26 10:19:48;;;;;;;;;;;15.70;99.90;;;;;;6048582;23;19917;-74
2022/10/26 10:22:23;;;;;;;;;;;15.70;99.90;;;;;;6072145;23;19917;-73
2022/10/26 10:25:02;;;;;;;;;;;15.70;99.90;;;;;;6048463;23;19917;-71
2022/10/26 10:27:28;;;;;;;;;;;15.60;99.90;;;;;;6089393;23;19971;-72
2022/10/26 10:29:55;;;;;;;;;;;15.70;99.90;;;;;;6101302;23;19906;-72
2022/10/26 10:32:29;;;;;;;;;;;15.70;99.90;;;;;;6130340;23;19927;-72
2022/10/26 10:34:56;;;;;;;;;;;15.60;99.90;;;;;;6160151;23;19912;-73
2022/10/26 10:37:48;;;;;;;;;;;15.60;99.90;;;;;;6113370;23;19921;-74
2022/10/26 10:40:18;;;;;;;;;;;15.60;99.90;;;;;;6127174;23;19919;-73
2022/10/26 10:42:44;;;;;;;;;;;15.70;99.90;;;;;;6157402;23;20367;-72
2022/10/26 10:45:19;;;;;;;;;;;15.80;99.90;;;;;;6131174;23;19916;-73
2022/10/26 10:47:57;;;;;;;;;;;15.90;99.90;;;;;;6131612;23;19970;-74
2022/10/26 10:50:23;;;;;;;;;;;16.00;99.90;;;;;;6107398;23;19991;-72
2022/10/26 10:52:48;;;;;;;;;;;16.00;99.90;;;;;;6107195;23;19917;-74
2022/10/26 10:55:14;;;;;;;;;;;16.00;99.90;;;;;;6131257;23;19950;-74
2022/10/26 10:58:06;;;;;;;;;;;16.00;99.90;;;;;;6107213;23;20222;-74
2022/10/26 11:00:35;;;;;;;;;;;16.10;99.90;;;;;;6098199;23;20227;-73
2022/10/26 11:03:10;;;;;;;;;;;16.30;99.90;;;;;;6130829;23;19917;-74
2022/10/26 11:05:47;;;;;;;;;;;16.30;99.90;;;;;;6107148;23;19984;-73
2022/10/26 11:08:50;;;;;;;;;;;16.40;99.90;;;;;;6130806;23;19992;-75
2022/10/26 11:11:21;;;;;;;;;;;16.40;99.90;;;;;;6125181;23;19963;-77
2022/10/26 11:14:06;;;;;;;;;;;16.40;99.90;;;;;;6106852;23;19912;-76
2022/10/26 11:16:50;;;;;;;;;;;16.50;99.90;;;;;;6106011;23;19913;-75
2022/10/26 11:19:35;;;;;;;;;;;16.50;99.90;;;;;;6106702;23;19955;-74
2022/10/26 11:22:21;;;;;;;;;;;16.60;99.90;;;;;;6129392;23;19952;-74
2022/10/26 11:25:02;;;;;;;;;;;16.80;99.90;;;;;;6106447;23;19912;-74
2022/10/26 11:27:38;;;;;;;;;;;16.60;99.90;;;;;;6155556;23;19916;-73
2022/10/26 11:30:11;;;;;;;;;;;16.70;99.90;;;;;;6130821;23;19920;-74
2022/10/26 11:32:46;;;;;;;;;;;16.70;99.90;;;;;;6130942;23;20231;-74
2022/10/26 11:35:31;;;;;;;;;;;16.70;99.90;;;;;;6130860;23;19913;-74
2022/10/26 11:38:18;;;;;;;;;;;16.70;99.90;;;;;;6106100;23;19912;-75
2022/10/26 11:40:51;;;;;;;;;;;16.70;99.90;;;;;;6128961;23;19912;-76
2022/10/26 12:53:30;;;;;;;;;;;16.90;99.90;;;;;;6093678;23;19996;-77
2022/10/26 12:56:20;;;;;;;;;;;16.70;99.90;;;;;;6044514;23;19924;-76
2022/10/26 13:16:33;;;;;;;;;;;16.60;99.90;;;;;;6094555;23;20359;-79
2022/10/26 13:29:11;;;;;;;;;;;16.90;99.90;;;;;;6128412;23;19920;-73
2022/10/26 13:31:38;;;;;;;;;;;17.00;99.90;;;;;;6104333;23;19928;-74
2022/10/26 13:34:20;;;;;;;;;;;17.00;99.90;;;;;;6103887;23;19948;-75
2022/10/26 13:36:50;;;;;;;;;;;17.00;99.90;;;;;;6104443;23;20247;-74
2022/10/26 13:39:40;;;;;;;;;;;17.00;99.90;;;;;;6130226;23;20325;-75
2022/10/26 13:42:06;;;;;;;;;;;16.90;99.90;;;;;;6105674;23;19917;-75
2022/10/26 13:44:53;;;;;;;;;;;16.90;99.90;;;;;;6106097;23;19983;-75
2022/10/26 13:47:55;;;;;;;;;;;16.90;99.90;;;;;;6105705;23;19927;-77
2022/10/26 13:50:48;;;;;;;;;;;;;;;;;;;;;
2022/10/26 13:53:31;;;;;;;;;;;16.90;99.90;;;;;;6065819;23;19925;-76
2022/10/26 13:59:37;;;;;;;;;;;16.80;99.90;;;;;;6094813;23;20009;-77
2022/10/26 14:02:38;;;;;;;;;;;16.70;99.90;;;;;;6105729;23;19924;-72
2022/10/26 14:05:04;;;;;;;;;;;16.80;99.90;;;;;;6037582;23;19921;-74
2022/10/26 14:07:36;;;;;;;;;;;16.80;99.90;;;;;;6105847;23;19983;-76
2022/10/26 14:10:02;;;;;;;;;;;16.90;99.90;;;;;;6106499;23;20315;-73
2022/10/26 14:12:28;;;;;;;;;;;16.90;99.90;;;;;;6130925;23;19995;-75
2022/10/26 14:14:56;;;;;;;;;;;16.90;99.90;;;;;;6132052;23;20346;-74
2022/10/26 14:17:23;;;;;;;;;;;16.80;99.90;;;;;;6131398;23;19973;-75
2022/10/26 14:19:49;;;;;;;;;;;16.80;99.90;;;;;;6107360;23;19921;-75
2022/10/26 14:22:22;;;;;;;;;;;16.70;99.90;;;;;;6107246;23;19999;-75
2022/10/26 14:24:58;;;;;;;;;;;16.70;99.90;;;;;;6107223;23;20247;-76
2022/10/26 14:27:26;;;;;;;;;;;16.70;99.90;;;;;;6117444;23;19963;-76
2022/10/26 14:29:52;;;;;;;;;;;16.80;99.90;;;;;;6136545;23;19920;-76
2022/10/26 14:32:21;;;;;;;;;;;16.80;99.90;;;;;;6135719;23;19920;-76
2022/10/26 14:34:46;;;;;;;;;;;16.70;99.90;;;;;;6136023;23;19916;-76
2022/10/26 14:37:17;;;;;;;;;;;16.80;99.90;;;;;;6136466;23;19924;-77
2022/10/26 14:39:44;;;;;;;;;;;16.70;99.90;;;;;;6136319;23;20010;-75
2022/10/26 14:42:21;;;;;;;;;;;16.60;99.90;;;;;;6135954;23;19921;-75
2022/10/26 14:44:47;;;;;;;;;;;16.50;99.90;;;;;;6136234;23;19916;-76
2022/10/26 14:47:22;;;;;;;;;;;16.50;99.90;;;;;;6161071;23;19983;-76
2022/10/26 14:49:47;;;;;;;;;;;16.40;99.90;;;;;;6136021;23;19923;-76
2022/10/26 14:52:19;;;;;;;;;;;16.40;99.90;;;;;;6136203;23;19916;-77
2022/10/26 14:54:55;;;;;;;;;;;16.30;99.90;;;;;;6135941;23;20269;-78
2022/10/26 14:57:28;;;;;;;;;;;16.30;99.90;;;;;;6136314;23;20217;-78
2022/10/26 15:00:00;;;;;;;;;;;16.30;99.90;;;;;;6133914;23;19943;-78
2022/10/26 15:02:26;;;;;;;;;;;16.20;99.90;;;;;;6158626;23;20332;-75
2022/10/26 15:04:58;;;;;;;;;;;16.20;99.90;;;;;;6135806;23;19966;-75
2022/10/26 15:07:35;;;;;;;;;;;16.10;99.90;;;;;;6136192;23;20295;-76
2022/10/26 15:13:29;;;;;;;;;;;16.00;99.90;;;;;;6127169;23;20045;-69
2022/10/26 15:16:15;;;;;;;;;;;16.00;99.90;;;;;;6160423;23;19916;-73
2022/10/26 15:18:41;;;;;;;;;;;15.90;99.90;;;;;;6159108;23;19970;-73
2022/10/26 15:21:19;;;;;;;;;;;15.90;99.90;;;;;;6136130;23;20345;-72
2022/10/26 15:23:44;;;;;;;;;;;15.90;99.90;;;;;;6136207;23;19920;-72
2022/10/26 15:26:16;;;;;;;;;;;15.80;99.90;;;;;;6135859;23;20251;-76
2022/10/26 15:39:24;;;;;;;;;;;;;;;;;;;;;
2022/10/26 15:45:26;;;;;;;;;;;15.60;99.90;;;;;;6095057;23;19916;-73
2022/10/26 15:58:10;;;;;;;;;;;15.40;99.90;;;;;;6175706;23;19920;-75
2022/10/26 16:00:36;;;;;;;;;;;15.40;99.90;;;;;;6185611;23;19928;-72
2022/10/26 16:03:02;;;;;;;;;;;15.40;99.90;;;;;;6147018;23;19928;-72
2022/10/26 16:05:27;;;;;;;;;;;15.40;99.90;;;;;;6159214;23;19991;-74
2022/10/26 16:07:53;;;;;;;;;;;15.30;99.90;;;;;;6157909;23;20003;-77
2022/10/26 16:10:21;;;;;;;;;;;15.30;99.90;;;;;;6134085;23;19920;-76
2022/10/26 16:12:46;;;;;;;;;;;15.30;99.90;;;;;;6134059;23;19920;-77
2022/10/26 16:18:27;;;;;;;;;;;15.30;99.90;;;;;;6158217;23;20382;-75
2022/10/26 16:21:18;;;;;;;;;;;15.20;99.90;;;;;;6158797;23;19916;-76
2022/10/26 16:23:55;;;;;;;;;;;15.10;99.90;;;;;;6158354;23;20323;-76
2022/10/26 16:26:42;;;;;;;;;;;15.00;99.90;;;;;;6133635;23;19969;-77
2022/10/26 16:29:10;;;;;;;;;;;15.00;99.90;;;;;;6158386;23;20753;-78
2022/10/26 16:31:35;;;;;;;;;;;14.90;99.90;;;;;;6133667;23;19968;-77
2022/10/26 16:34:04;;;;;;;;;;;14.90;99.90;;;;;;6133876;23;19920;-77
2022/10/26 16:36:32;;;;;;;;;;;14.80;99.90;;;;;;6131457;23;19920;-78
2022/10/26 16:39:05;;;;;;;;;;;14.80;99.90;;;;;;6132284;23;19983;-81
2022/10/26 16:41:33;;;;;;;;;;;14.80;99.90;;;;;;6158000;23;19920;-74
2022/10/26 16:43:59;;;;;;;;;;;14.80;99.90;;;;;;6134104;23;19967;-73
2022/10/26 16:46:25;;;;;;;;;;;14.80;99.90;;;;;;6157537;23;19919;-74
2022/10/26 16:48:50;;;;;;;;;;;14.80;99.90;;;;;;6158013;23;19916;-75
2022/10/26 16:51:17;;;;;;;;;;;14.80;99.90;;;;;;6133588;23;19921;-74
2022/10/26 16:53:45;;;;;;;;;;;14.80;99.90;;;;;;6134039;23;20247;-73
2022/10/26 16:56:11;;;;;;;;;;;14.80;99.90;;;;;;6133607;23;19958;-74
2022/10/26 16:58:37;;;;;;;;;;;14.90;99.90;;;;;;6157744;23;19952;-74
2022/10/26 17:01:03;;;;;;;;;;;14.80;99.90;;;;;;6134388;23;19920;-74
2022/10/26 17:03:29;;;;;;;;;;;14.90;99.90;;;;;;6157891;23;19940;-73
2022/10/26 17:05:58;;;;;;;;;;;14.80;99.90;;;;;;6133352;23;19921;-73
2022/10/26 17:08:24;;;;;;;;;;;14.80;99.90;;;;;;6158102;23;19979;-73
2022/10/26 17:10:50;;;;;;;;;;;14.70;99.90;;;;;;6158121;23;19921;-74
2022/10/26 17:13:16;;;;;;;;;;;14.70;99.90;;;;;;6135034;23;19923;-77
2022/10/26 17:15:41;;;;;;;;;;;14.60;99.90;;;;;;6160647;23;19924;-75
2022/10/26 17:18:48;;;;;;;;;;;14.50;99.90;;;;;;6135724;23;19920;-75
2022/10/26 17:21:30;;;;;;;;;;;14.50;99.90;;;;;;6000121;23;19918;-75
2022/10/26 17:23:56;;;;;;;;;;;14.50;99.90;;;;;;6014056;23;19922;-73
2022/10/26 17:26:22;;;;;;;;;;;14.30;99.90;;;;;;6100228;23;19967;-74
2022/10/26 17:28:56;;;;;;;;;;;14.30;99.90;;;;;;6160822;23;20435;-74
2022/10/26 17:31:23;;;;;;;;;;;14.40;99.90;;;;;;6136666;23;19964;-73
2022/10/26 17:33:49;;;;;;;;;;;14.30;99.90;;;;;;6162464;23;19916;-76
2022/10/26 17:36:18;;;;;;;;;;;14.30;99.90;;;;;;6162191;23;19954;-75
2022/10/26 17:38:45;;;;;;;;;;;14.20;99.90;;;;;;6138131;23;19916;-75
2022/10/26 17:41:14;;;;;;;;;;;14.20;99.90;;;;;;6138149;23;19920;-75
2022/10/26 17:43:41;;;;;;;;;;;14.30;99.90;;;;;;6162469;23;19920;-75
2022/10/26 17:46:08;;;;;;;;;;;14.20;99.90;;;;;;6137454;23;21767;-77
2022/10/26 17:48:34;;;;;;;;;;;14.20;99.90;;;;;;6137738;23;19923;-76
2022/10/26 17:51:00;;;;;;;;;;;14.30;99.90;;;;;;6162230;23;20235;-77
2022/10/26 17:53:26;;;;;;;;;;;14.20;99.90;;;;;;6138035;23;19920;-77
2022/10/26 17:56:06;;;;;;;;;;;14.20;99.90;;;;;;6160126;23;19955;-78
2022/10/26 17:58:35;;;;;;;;;;;14.20;99.90;;;;;;6102431;23;19917;-78
2022/10/26 18:35:03;;;;;;;;;;;14.00;99.90;;;;;;6186265;23;20373;-82
2022/10/26 18:41:30;;;;;;;;;;;13.80;99.90;;;;;;6192877;23;20376;-81
2022/10/26 18:44:30;;;;;;;;;;;;;;;;;;;;;
2022/10/26 18:50:48;;;;;;;;;;;13.70;99.90;;;;;;6125155;23;20244;-82
2022/10/26 18:53:17;;;;;;;;;;;13.60;99.90;;;;;;6076578;23;19917;-82
2022/10/26 18:56:02;;;;;;;;;;;13.60;99.90;;;;;;6076074;23;19917;-81
2022/10/26 18:58:37;;;;;;;;;;;13.60;99.90;;;;;;6124481;23;19917;-79
2022/10/26 19:52:41;;;;;;;;;;;13.20;99.90;;;;;;6185877;23;19923;-80
2022/10/26 19:55:09;;;;;;;;;;;13.10;99.90;;;;;;6135939;23;19917;-78
2022/10/26 19:57:35;;;;;;;;;;;13.00;99.90;;;;;;6159612;23;19947;-76
